createdAt,value
2023-02-16T00:02:10.123Z,17.92
2023-02-16T00:04:37.123Z,19.30
2023-02-16T00:07:03.720Z,19.38
2023-02-16T00:09:30.208Z,17.73
2023-02-16T00:12:15.945Z,17.33
2023-02-16T00:14:42.421Z,16.60
2023-02-16T00:17:10.945Z,17.67
2023-02-16T00:19:39.277Z,17.52
2023-02-16T00:22:07.508Z,16.92
2023-02-16T00:24:34.219Z,17.75
2023-02-16T00:27:00.979Z,17.73
2023-02-16T00:29:30.560Z,17.92
2023-02-16T00:31:58.522Z,16.48
2023-02-16T00:34:38.223Z,16.33
2023-02-16T00:37:07.013Z,18.65
2023-02-16T00:39:33.970Z,18.17
2023-02-16T00:42:03.625Z,17.48
2023-02-16T00:44:37.803Z,18.88
2023-02-16T00:47:14.865Z,18.33
2023-02-16T00:49:41.955Z,17.65
2023-02-16T00:52:34.171Z,18.65
2023-02-16T00:55:02.548Z,17.27
2023-02-16T00:57:33.430Z,17.77
2023-02-16T01:00:24.609Z,17.23
2023-02-16T01:05:18.266Z,18.60
2023-02-16T01:08:03.247Z,17.85
2023-02-16T01:10:49.231Z,17.83
2023-02-16T01:13:15.898Z,16.90
2023-02-16T01:15:42.993Z,17.98
2023-02-16T01:18:13.242Z,17.83
2023-02-16T01:20:39.971Z,18.02
2023-02-16T01:23:06.533Z,17.10
2023-02-16T01:25:33.097Z,18.80
2023-02-16T01:27:59.649Z,19.85
2023-02-16T01:30:26.719Z,16.45
2023-02-16T01:35:34.606Z,18.15
2023-02-16T01:38:01.374Z,18.58
2023-02-16T01:40:33.860Z,17.00
2023-02-16T01:43:03.348Z,17.33
2023-02-16T01:45:38.504Z,17.48
2023-02-16T01:48:07.338Z,16.02
2023-02-16T01:51:03.456Z,17.70
2023-02-16T01:53:46.599Z,16.45
2023-02-16T01:56:44.975Z,17.67
2023-02-16T01:59:19.563Z,16.90
2023-02-16T02:01:54.173Z,16.15
2023-02-16T02:04:45.890Z,16.83
2023-02-16T02:07:19.043Z,17.60
2023-02-16T02:09:52.535Z,17.58
2023-02-16T02:12:28.995Z,16.50
2023-02-16T02:14:56.387Z,16.30
2023-02-16T02:17:23.913Z,17.27
2023-02-16T02:20:19.736Z,16.92
2023-02-16T02:23:11.178Z,16.08
2023-02-16T02:28:19.903Z,15.85
2023-02-16T02:31:04.571Z,15.73
2023-02-16T02:33:34.272Z,16.85
2023-02-16T02:36:11.690Z,16.30
2023-02-16T02:39:09.448Z,17.67
2023-02-16T02:41:59.698Z,16.67
2023-02-16T02:44:29.212Z,16.70
2023-02-16T02:46:56.193Z,16.75
2023-02-16T02:49:23.113Z,16.95
2023-02-16T02:51:50.095Z,16.30
2023-02-16T02:54:39.062Z,17.05
2023-02-16T02:57:30.373Z,16.00
2023-02-16T03:00:18.450Z,15.77
2023-02-16T03:02:48.380Z,16.48
2023-02-16T03:05:15.382Z,15.93
2023-02-16T03:07:49.048Z,16.20
2023-02-16T03:10:45.817Z,16.92
2023-02-16T03:13:19.608Z,16.63
2023-02-16T03:15:47.097Z,16.73
2023-02-16T03:18:33.262Z,15.07
2023-02-16T03:21:18.875Z,16.02
2023-02-16T03:24:04.160Z,16.48
2023-02-16T03:26:50.241Z,16.55
2023-02-16T03:29:18.305Z,16.25
2023-02-16T03:31:45.896Z,16.20
2023-02-16T03:34:12.997Z,16.38
2023-02-16T03:36:42.043Z,16.35
2023-02-16T03:39:08.948Z,16.15
2023-02-16T03:41:40.915Z,17.00
2023-02-16T03:44:07.616Z,15.85
2023-02-16T03:46:34.282Z,17.30
2023-02-16T03:49:00.808Z,16.90
2023-02-16T03:51:27.318Z,16.38
2023-02-16T03:53:54.170Z,16.42
2023-02-16T03:56:20.784Z,18.05
2023-02-16T03:58:47.243Z,16.75
2023-02-16T04:01:13.908Z,16.52
2023-02-16T04:03:40.375Z,17.55
2023-02-16T04:06:07.209Z,18.52
2023-02-16T04:08:33.780Z,17.30
2023-02-16T04:11:00.420Z,15.77
2023-02-16T04:13:26.963Z,18.25
2023-02-16T04:15:53.458Z,17.55
2023-02-16T04:18:19.961Z,16.45
2023-02-16T04:20:46.508Z,15.02
2023-02-16T04:23:12.997Z,17.77
2023-02-16T04:25:39.574Z,18.00
2023-02-16T04:28:06.099Z,16.60
2023-02-16T04:30:32.769Z,16.70
2023-02-16T04:32:59.558Z,16.55
2023-02-16T04:35:26.224Z,16.83
2023-02-16T04:37:52.749Z,16.83
2023-02-16T04:40:19.455Z,16.65
2023-02-16T04:42:46.086Z,16.42
2023-02-16T04:45:13.010Z,17.20
2023-02-16T04:47:39.543Z,17.35
2023-02-16T04:50:06.830Z,17.02
2023-02-16T04:52:34.249Z,17.60
2023-02-16T04:55:00.884Z,17.27
2023-02-16T04:57:27.596Z,15.90
2023-02-16T04:59:54.065Z,17.48
2023-02-16T05:02:20.553Z,18.60
2023-02-16T05:04:48.554Z,16.38
2023-02-16T05:07:15.452Z,17.45
2023-02-16T05:09:41.927Z,16.55
2023-02-16T05:12:27.081Z,18.23
2023-02-16T05:14:53.561Z,18.75
2023-02-16T05:17:22.707Z,18.67
2023-02-16T05:19:54.601Z,17.92
2023-02-16T05:22:21.662Z,17.73
2023-02-16T05:24:48.586Z,16.38
2023-02-16T05:27:20.942Z,22.38
2023-02-16T05:29:47.797Z,17.92
2023-02-16T05:32:14.837Z,17.67
2023-02-16T05:34:41.408Z,18.00
2023-02-16T05:37:08.047Z,17.23
2023-02-16T05:39:34.503Z,19.00
2023-02-16T05:42:01.050Z,18.20
2023-02-16T05:44:27.598Z,17.52
2023-02-16T05:46:54.142Z,20.45
2023-02-16T05:49:20.691Z,18.33
2023-02-16T05:51:47.300Z,18.92
2023-02-16T05:54:17.540Z,19.25
2023-02-16T05:56:46.106Z,18.35
2023-02-16T05:59:13.358Z,19.20
2023-02-16T06:01:41.002Z,18.25
2023-02-16T06:04:09.253Z,18.63
2023-02-16T06:06:37.324Z,19.00
2023-02-16T06:09:05.687Z,18.30
2023-02-16T06:11:38.351Z,18.13
2023-02-16T06:14:16.951Z,17.75
2023-02-16T06:16:44.846Z,19.13
2023-02-16T06:19:12.207Z,18.65
2023-02-16T06:21:39.323Z,17.70
2023-02-16T06:24:07.230Z,18.45
2023-02-16T06:26:33.948Z,18.95
2023-02-16T06:29:00.649Z,17.90
2023-02-16T06:31:27.399Z,16.85
2023-02-16T06:33:54.477Z,17.73
2023-02-16T06:36:21.111Z,19.98
2023-02-16T06:38:47.705Z,17.88
2023-02-16T06:41:31.125Z,19.02
2023-02-16T06:44:02.611Z,16.80
2023-02-16T06:46:29.505Z,17.77
2023-02-16T06:48:56.209Z,18.45
2023-02-16T06:51:22.856Z,16.88
2023-02-16T06:53:49.452Z,16.98
2023-02-16T06:56:16.250Z,17.77
2023-02-16T06:58:42.807Z,17.90
2023-02-16T07:01:09.534Z,16.42
2023-02-16T07:03:36.103Z,17.52
2023-02-16T07:06:02.799Z,17.23
2023-02-16T07:08:29.315Z,17.25
2023-02-16T07:10:55.925Z,20.13
2023-02-16T07:13:22.507Z,17.55
2023-02-16T07:15:50.197Z,18.45
2023-02-16T07:18:16.676Z,18.33
2023-02-16T07:20:43.515Z,16.80
2023-02-16T07:23:10.021Z,18.08
2023-02-16T07:25:37.273Z,18.48
2023-02-16T07:28:04.533Z,17.67
2023-02-16T07:30:31.270Z,17.45
2023-02-16T07:32:57.847Z,17.60
2023-02-16T07:35:24.409Z,16.42
2023-02-16T07:37:50.984Z,17.42
2023-02-16T07:40:17.674Z,17.73
2023-02-16T07:42:44.288Z,17.70
2023-02-16T07:45:10.908Z,17.25
2023-02-16T07:47:37.554Z,17.60
2023-02-16T07:50:04.582Z,15.70
2023-02-16T07:52:31.424Z,18.13
2023-02-16T07:55:01.270Z,16.90
2023-02-16T07:57:28.870Z,16.98
2023-02-16T07:59:55.768Z,16.73
2023-02-16T08:02:23.273Z,15.90
2023-02-16T08:04:52.903Z,17.38
2023-02-16T08:07:20.179Z,17.02
2023-02-16T08:09:46.733Z,16.98
2023-02-16T08:12:14.597Z,16.73
2023-02-16T08:14:41.324Z,17.58
2023-02-16T08:17:07.990Z,15.90
2023-02-16T08:19:35.246Z,17.98
2023-02-16T08:22:04.588Z,17.08
2023-02-16T08:24:31.575Z,16.70
2023-02-16T08:26:58.135Z,16.98
2023-02-16T08:29:24.689Z,16.00
2023-02-16T08:31:51.824Z,16.42
2023-02-16T08:34:19.718Z,16.75
2023-02-16T08:36:48.000Z,16.52
2023-02-16T08:39:16.268Z,16.08
2023-02-16T08:41:44.243Z,17.02
2023-02-16T08:44:10.827Z,16.85
2023-02-16T08:46:40.151Z,15.27
2023-02-16T08:49:07.773Z,16.10
2023-02-16T08:51:36.577Z,17.85
2023-02-16T08:54:06.044Z,17.02
2023-02-16T08:56:35.582Z,15.07
2023-02-16T08:59:02.526Z,18.13
2023-02-16T09:01:29.106Z,16.23
2023-02-16T09:03:55.649Z,15.52
2023-02-16T09:06:22.930Z,18.10
2023-02-16T09:08:54.471Z,16.00
2023-02-16T09:11:21.811Z,16.15
2023-02-16T09:13:48.982Z,15.63
2023-02-16T09:16:18.760Z,17.08
2023-02-16T09:18:46.208Z,16.50
2023-02-16T09:21:15.909Z,16.80
2023-02-16T09:23:44.928Z,17.75
2023-02-16T09:26:11.871Z,16.00
2023-02-16T09:28:39.322Z,15.52
2023-02-16T09:31:11.897Z,16.63
2023-02-16T09:33:40.042Z,14.50
2023-02-16T09:36:07.986Z,15.65
2023-02-16T09:38:34.914Z,16.17
2023-02-16T09:41:15.448Z,14.52
2023-02-16T09:43:49.777Z,15.85
2023-02-16T09:46:21.225Z,14.85
2023-02-16T09:48:50.321Z,14.68
2023-02-16T09:51:34.257Z,15.60
2023-02-16T09:54:36.104Z,14.45
2023-02-16T09:59:48.326Z,13.23
2023-02-16T10:02:32.546Z,13.93
2023-02-16T10:05:13.941Z,13.57
2023-02-16T10:07:40.459Z,13.98
2023-02-16T10:10:08.734Z,13.35
2023-02-16T10:12:41.480Z,13.15
2023-02-16T10:15:20.102Z,14.20
2023-02-16T10:17:49.245Z,14.93
2023-02-16T10:20:34.421Z,14.65
2023-02-16T10:23:08.304Z,14.43
2023-02-16T10:26:01.482Z,13.85
2023-02-16T10:28:46.470Z,14.35
2023-02-16T10:31:13.121Z,14.40
2023-02-16T10:33:44.061Z,13.65
2023-02-16T10:36:20.010Z,14.23
2023-02-16T10:38:49.653Z,14.93
2023-02-16T10:41:34.690Z,14.02
2023-02-16T10:44:03.509Z,14.23
2023-02-16T10:46:34.140Z,14.27
2023-02-16T10:49:04.069Z,15.10
2023-02-16T10:51:37.379Z,15.13
2023-02-16T10:54:08.884Z,16.35
2023-02-16T10:57:04.079Z,14.73
2023-02-16T10:59:37.142Z,14.63
2023-02-16T11:02:15.774Z,16.83
2023-02-16T11:04:44.732Z,15.63
2023-02-16T11:07:20.144Z,16.35
2023-02-16T11:09:49.223Z,16.83
2023-02-16T11:12:15.939Z,15.88
2023-02-16T11:14:49.197Z,15.82
2023-02-16T11:17:17.179Z,16.17
2023-02-16T11:20:25.030Z,16.90
2023-02-16T11:22:51.732Z,16.08
2023-02-16T11:25:18.774Z,16.33
2023-02-16T11:27:57.326Z,18.10
2023-02-16T11:30:32.880Z,17.80
2023-02-16T11:33:04.667Z,18.48
2023-02-16T11:35:42.113Z,18.13
2023-02-16T11:38:25.159Z,17.23
2023-02-16T11:40:52.985Z,17.35
2023-02-16T11:43:19.845Z,17.35
2023-02-16T11:46:01.171Z,17.08
2023-02-16T11:48:32.962Z,17.70
2023-02-16T11:51:05.594Z,18.30
2023-02-16T11:53:34.966Z,17.40
2023-02-16T11:56:27.912Z,17.90
2023-02-16T11:59:17.003Z,17.50
2023-02-16T12:01:52.708Z,19.30
2023-02-16T12:04:47.247Z,17.67
2023-02-16T12:07:16.511Z,19.38
2023-02-16T12:09:49.756Z,17.23
2023-02-16T12:12:34.960Z,19.40
2023-02-16T12:15:25.825Z,18.83
2023-02-16T12:18:10.508Z,19.80
2023-02-16T12:20:43.179Z,18.98
2023-02-16T12:23:12.752Z,19.50
2023-02-16T12:25:44.682Z,18.00
2023-02-16T12:28:42.920Z,17.92
2023-02-16T12:31:24.654Z,18.60
2023-02-16T12:34:16.763Z,18.60
2023-02-16T12:36:49.979Z,17.92
2023-02-16T12:39:22.572Z,18.80
2023-02-16T12:42:04.550Z,19.33
2023-02-16T12:44:34.618Z,18.38
2023-02-16T12:47:08.234Z,19.58
2023-02-16T12:49:46.244Z,18.15
2023-02-16T12:52:40.198Z,18.48
2023-02-16T12:55:06.953Z,17.70
2023-02-16T12:57:34.521Z,18.20
2023-02-16T13:00:33.551Z,19.80
2023-02-16T13:03:13.248Z,18.98
2023-02-16T13:05:39.864Z,18.05
2023-02-16T13:08:22.596Z,17.52
2023-02-16T13:11:00.164Z,18.92
2023-02-16T13:13:27.966Z,19.65
2023-02-16T13:16:36.684Z,20.08
2023-02-16T13:19:03.454Z,18.17
2023-02-16T13:21:42.489Z,19.58
2023-02-16T13:24:41.795Z,18.50
2023-02-16T13:27:20.269Z,19.25
2023-02-16T13:29:52.495Z,19.38
2023-02-16T13:32:44.816Z,19.55
2023-02-16T13:35:37.473Z,19.02
2023-02-16T13:38:10.097Z,20.27
2023-02-16T13:40:47.822Z,19.95
2023-02-16T13:43:29.519Z,18.90
2023-02-16T13:45:56.744Z,19.80
2023-02-16T13:48:27.078Z,19.65
2023-02-16T13:50:58.725Z,19.60
2023-02-16T13:53:25.719Z,20.23
2023-02-16T13:56:36.111Z,19.55
2023-02-16T13:59:19.306Z,19.75
2023-02-16T14:01:47.010Z,19.55
2023-02-16T14:04:33.523Z,20.85
2023-02-16T14:07:07.364Z,20.27
2023-02-16T14:09:46.598Z,19.23
2023-02-16T14:12:36.163Z,18.10
2023-02-16T14:15:07.664Z,19.75
2023-02-16T14:17:35.853Z,19.98
2023-02-16T14:20:05.311Z,19.92
2023-02-16T14:22:38.925Z,19.90
2023-02-16T14:25:29.233Z,19.30
2023-02-16T14:27:58.595Z,20.70
2023-02-16T14:30:35.557Z,18.75
2023-02-16T14:33:17.466Z,19.98
2023-02-16T14:36:09.122Z,19.48
2023-02-16T14:38:37.321Z,20.48
2023-02-16T14:41:13.908Z,22.83
2023-02-16T14:43:46.757Z,20.23
2023-02-16T14:46:13.342Z,20.88
2023-02-16T14:48:58.474Z,21.35
2023-02-16T14:51:42.094Z,21.20
2023-02-16T14:54:23.848Z,21.10
2023-02-16T14:56:53.966Z,19.95
2023-02-16T14:59:39.006Z,22.30
2023-02-16T15:02:54.436Z,20.35
2023-02-16T15:05:24.869Z,21.65
2023-02-16T15:07:55.043Z,20.92
2023-02-16T15:10:27.079Z,19.95
2023-02-16T15:12:55.358Z,19.45
2023-02-16T15:15:29.095Z,19.83
2023-02-16T15:17:56.016Z,19.83
2023-02-16T15:20:30.071Z,19.65
2023-02-16T15:22:59.619Z,19.48
2023-02-16T15:25:40.839Z,19.90
2023-02-16T15:28:10.628Z,19.58
2023-02-16T15:30:39.765Z,18.88
2023-02-16T15:33:14.315Z,18.88
2023-02-16T15:35:42.718Z,19.42
2023-02-16T15:38:12.767Z,19.75
2023-02-16T15:40:40.038Z,18.15
2023-02-16T15:43:17.504Z,18.25
2023-02-16T15:45:49.378Z,18.45
2023-02-16T15:48:38.217Z,19.17
2023-02-16T15:51:15.523Z,20.25
2023-02-16T15:53:48.162Z,19.45
2023-02-16T15:56:23.125Z,18.65
2023-02-16T15:58:50.009Z,19.42
2023-02-16T16:01:35.580Z,18.50
2023-02-16T16:04:22.001Z,18.25
2023-02-16T16:06:51.018Z,18.15
2023-02-16T16:09:25.371Z,17.80
2023-02-16T16:11:54.730Z,17.25
2023-02-16T16:14:21.877Z,17.25
2023-02-16T16:16:48.564Z,17.45
2023-02-16T16:19:19.064Z,17.42
2023-02-16T16:21:51.895Z,17.55
2023-02-16T16:24:38.988Z,16.33
2023-02-16T16:27:11.034Z,16.65
2023-02-16T16:29:44.837Z,17.50
2023-02-16T16:32:28.735Z,16.90
2023-02-16T16:34:55.567Z,16.33
2023-02-16T16:37:33.996Z,16.23
2023-02-16T16:40:08.558Z,16.25
2023-02-16T16:42:39.303Z,16.50
2023-02-16T16:45:38.399Z,16.00
2023-02-16T16:48:18.415Z,15.85
2023-02-16T16:50:46.285Z,17.20
2023-02-16T16:53:28.103Z,16.70
2023-02-16T16:55:54.937Z,16.48
2023-02-16T16:58:21.432Z,15.38
2023-02-16T17:00:47.952Z,15.55
2023-02-16T17:03:16.893Z,16.20
2023-02-16T17:05:43.970Z,16.25
2023-02-16T17:08:11.297Z,16.27
2023-02-16T17:10:40.152Z,15.82
2023-02-16T17:13:07.159Z,16.30
2023-02-16T17:15:44.150Z,16.25
2023-02-16T17:18:16.395Z,15.75
2023-02-16T17:20:43.574Z,14.95
2023-02-16T17:23:15.005Z,15.18
2023-02-16T17:25:42.260Z,14.30
2023-02-16T17:28:09.868Z,14.23
2023-02-16T17:30:37.275Z,14.65
2023-02-16T17:33:04.095Z,14.27
2023-02-16T17:35:31.295Z,14.60
2023-02-16T17:37:57.893Z,14.27
2023-02-16T17:40:25.256Z,12.98
2023-02-16T17:42:52.070Z,14.30
2023-02-16T17:45:20.838Z,12.15
2023-02-16T17:47:50.275Z,12.63
2023-02-16T17:50:16.999Z,12.23
2023-02-16T17:52:44.364Z,11.40
2023-02-16T17:55:12.441Z,12.25
2023-02-16T17:57:39.306Z,11.35
2023-02-16T18:00:08.290Z,11.98
2023-02-16T18:02:34.960Z,9.45
2023-02-16T18:05:01.532Z,10.45
2023-02-16T18:07:28.130Z,10.40
2023-02-16T18:09:54.885Z,10.20
2023-02-16T18:12:21.404Z,9.60
2023-02-16T18:14:47.949Z,9.60
2023-02-16T18:17:14.541Z,8.65
2023-02-16T18:19:41.128Z,9.05
2023-02-16T18:22:07.639Z,8.68
2023-02-16T18:24:34.467Z,8.52
2023-02-16T18:27:01.300Z,8.45
2023-02-16T18:29:27.883Z,8.60
2023-02-16T18:31:54.481Z,8.13
2023-02-16T18:34:21.458Z,8.07
2023-02-16T18:36:48.034Z,7.63
2023-02-16T18:39:14.923Z,8.57
2023-02-16T18:41:41.780Z,8.52
2023-02-16T18:44:08.329Z,8.57
2023-02-16T18:46:34.868Z,9.15
2023-02-16T18:49:01.442Z,8.68
2023-02-16T18:51:29.432Z,8.35
2023-02-16T18:53:57.292Z,9.10
2023-02-16T18:56:24.021Z,8.77
2023-02-16T18:58:50.495Z,10.13
2023-02-16T19:01:29.351Z,10.23
2023-02-16T19:03:56.329Z,10.43
2023-02-16T19:06:23.135Z,10.75
2023-02-16T19:08:53.902Z,10.55
2023-02-16T19:11:21.612Z,12.25
2023-02-16T19:13:48.387Z,11.18
2023-02-16T19:16:16.015Z,12.00
2023-02-16T19:18:42.735Z,12.95
2023-02-16T19:21:10.869Z,12.70
2023-02-16T19:23:37.735Z,13.90
2023-02-16T19:26:08.773Z,12.60
2023-02-16T19:31:03.432Z,12.45
2023-02-16T19:33:30.939Z,13.73
2023-02-16T19:36:02.738Z,14.13
2023-02-16T19:38:32.268Z,13.15
2023-02-16T19:40:59.423Z,14.23
2023-02-16T19:43:26.119Z,15.15
2023-02-16T19:45:52.913Z,13.50
2023-02-16T19:48:19.459Z,15.98
2023-02-16T19:50:46.516Z,15.20
2023-02-16T19:53:13.070Z,15.35
2023-02-16T19:55:41.453Z,16.23
2023-02-16T19:58:08.153Z,16.70
2023-02-16T20:00:36.317Z,16.10
2023-02-16T20:03:02.954Z,16.20
2023-02-16T20:05:29.485Z,16.42
2023-02-16T20:07:55.971Z,16.33
2023-02-16T20:10:22.585Z,15.20
2023-02-16T20:12:49.067Z,18.20
2023-02-16T20:15:16.005Z,18.38
2023-02-16T20:17:42.513Z,17.15
2023-02-16T20:20:09.490Z,16.98
2023-02-16T20:22:36.079Z,17.77
2023-02-16T20:25:02.770Z,17.55
2023-02-16T20:27:29.586Z,16.83
2023-02-16T20:29:56.386Z,18.27
2023-02-16T20:32:27.272Z,17.13
2023-02-16T20:34:54.046Z,16.15
2023-02-16T20:37:21.792Z,17.35
2023-02-16T20:39:48.553Z,15.43
2023-02-16T20:42:15.172Z,16.63
2023-02-16T20:44:42.417Z,15.88
2023-02-16T20:47:16.582Z,17.00
2023-02-16T20:49:57.157Z,16.13
2023-02-16T20:58:23.483Z,15.38
2023-02-16T21:00:51.857Z,15.73
2023-02-16T21:03:20.721Z,15.57
2023-02-16T21:05:49.547Z,16.38
2023-02-16T21:08:18.175Z,15.88
2023-02-16T21:10:50.944Z,16.60
2023-02-16T21:13:18.726Z,17.90
2023-02-16T21:18:40.525Z,18.02
2023-02-16T21:21:09.413Z,18.25
2023-02-16T21:23:44.793Z,19.45
2023-02-16T21:26:14.710Z,19.77
2023-02-16T21:28:43.274Z,19.95
2023-02-16T21:31:16.058Z,21.30
2023-02-16T21:33:45.759Z,20.63
2023-02-16T21:36:39.403Z,23.10
2023-02-16T21:41:56.008Z,21.23
2023-02-16T21:44:37.703Z,21.75
2023-02-16T21:47:31.591Z,21.67
2023-02-16T21:50:02.627Z,23.02
2023-02-16T21:52:33.045Z,23.35
2023-02-16T21:55:21.090Z,22.08
2023-02-16T21:57:49.975Z,22.73
2023-02-16T22:00:24.982Z,22.85
2023-02-16T22:02:53.949Z,24.67
2023-02-16T22:05:27.417Z,25.98
2023-02-16T22:07:54.486Z,25.42
2023-02-16T22:10:22.289Z,25.42
2023-02-16T22:12:49.125Z,25.20
2023-02-16T22:15:19.675Z,26.27
2023-02-16T22:17:58.048Z,28.83
2023-02-16T22:20:25.490Z,28.30
2023-02-16T22:22:57.316Z,29.45
2023-02-16T22:25:27.554Z,28.80
2023-02-16T22:28:01.644Z,27.85
2023-02-16T22:30:30.027Z,29.67
2023-02-16T22:33:03.975Z,28.58
2023-02-16T22:35:33.922Z,30.50
2023-02-16T22:38:13.238Z,29.40
2023-02-16T22:40:46.085Z,28.42
2023-02-16T22:43:12.994Z,30.13
2023-02-16T22:45:54.989Z,29.27
2023-02-16T22:48:44.488Z,30.17
2023-02-16T22:51:16.608Z,28.30
2023-02-16T22:53:44.411Z,29.73
2023-02-16T22:56:21.301Z,29.40
2023-02-16T22:58:56.493Z,28.90
2023-02-16T23:01:26.529Z,29.33
2023-02-16T23:04:02.401Z,27.55
2023-02-16T23:06:32.965Z,28.35
2023-02-16T23:09:05.909Z,28.75
2023-02-16T23:11:39.595Z,27.48
2023-02-16T23:14:16.779Z,28.70
2023-02-16T23:16:53.111Z,27.50
2023-02-16T23:19:40.925Z,28.00
2023-02-16T23:22:10.272Z,27.23
2023-02-16T23:24:45.950Z,27.25
2023-02-16T23:27:13.298Z,26.52
2023-02-16T23:29:43.921Z,24.70
2023-02-16T23:32:11.418Z,25.55
2023-02-16T23:34:39.503Z,25.25
2023-02-16T23:37:08.924Z,25.30
2023-02-16T23:39:45.888Z,24.92
2023-02-16T23:42:13.544Z,24.30
2023-02-16T23:44:42.149Z,23.35
2023-02-16T23:47:16.626Z,23.42
2023-02-16T23:49:45.748Z,22.85
2023-02-16T23:52:13.305Z,23.40
2023-02-16T23:54:42.117Z,21.10
2023-02-16T23:57:12.328Z,21.00
2023-02-16T23:59:40.753Z,23.33
